sensor_id;sensor_type;location;lat;lon;timestamp;temperature;humidity
7155;DHT22;3619;53.784;10.440;2023-04-03T00:02:05;-0.20;99.90
7155;DHT22;3619;53.784;10.440;2023-04-03T00:04:32;-0.10;99.90
7155;DHT22;3619;53.784;10.440;2023-04-03T00:06:59;-0.10;99.90
7155;DHT22;3619;53.784;10.440;2023-04-03T00:09:27;-0.10;99.90
7155;DHT22;3619;53.784;10.440;2023-04-03T00:11:55;-0.10;99.90
7155;DHT22;3619;53.784;10.440;2023-04-03T00:14:22;-0.10;99.90
7155;DHT22;3619;53.784;10.440;2023-04-03T00:16:50;-0.20;99.90
7155;DHT22;3619;53.784;10.440;2023-04-03T00:19:17;-0.30;99.90
7155;DHT22;3619;53.784;10.440;2023-04-03T00:21:44;-0.30;99.90
7155;DHT22;3619;53.784;10.440;2023-04-03T00:24:11;-0.40;99.90
7155;DHT22;3619;53.784;10.440;2023-04-03T00:26:40;-0.40;99.90
7155;DHT22;3619;53.784;10.440;2023-04-03T00:29:07;-0.40;99.90
7155;DHT22;3619;53.784;10.440;2023-04-03T00:31:33;-0.40;99.90
7155;DHT22;3619;53.784;10.440;2023-04-03T00:34:04;-0.40;99.90
7155;DHT22;3619;53.784;10.440;2023-04-03T00:36:31;-0.50;99.90
7155;DHT22;3619;53.784;10.440;2023-04-03T00:38:58;-0.60;99.90
7155;DHT22;3619;53.784;10.440;2023-04-03T00:41:24;-0.50;99.90
7155;DHT22;3619;53.784;10.440;2023-04-03T00:43:52;-0.50;99.90
7155;DHT22;3619;53.784;10.440;2023-04-03T00:46:18;-0.40;99.90
7155;DHT22;3619;53.784;10.440;2023-04-03T00:48:47;-0.30;99.90
7155;DHT22;3619;53.784;10.440;2023-04-03T00:51:18;-0.30;99.90
7155;DHT22;3619;53.784;10.440;2023-04-03T00:53:50;-0.40;99.90
7155;DHT22;3619;53.784;10.440;2023-04-03T00:56:21;-0.40;99.90
7155;DHT22;3619;53.784;10.440;2023-04-03T00:58:51;-0.60;99.90
7155;DHT22;3619;53.784;10.440;2023-04-03T01:01:22;-0.70;99.90
7155;DHT22;3619;53.784;10.440;2023-04-03T01:03:50;-0.60;99.90
7155;DHT22;3619;53.784;10.440;2023-04-03T01:06:22;-0.70;99.90
7155;DHT22;3619;53.784;10.440;2023-04-03T01:08:51;-0.70;99.90
7155;DHT22;3619;53.784;10.440;2023-04-03T01:11:21;-0.70;99.90
7155;DHT22;3619;53.784;10.440;2023-04-03T01:13:48;-0.80;99.90
7155;DHT22;3619;53.784;10.440;2023-04-03T01:16:15;-0.80;99.90
7155;DHT22;3619;53.784;10.440;2023-04-03T01:18:42;-0.70;99.90
7155;DHT22;3619;53.784;10.440;2023-04-03T01:24:25;-0.70;99.90
7155;DHT22;3619;53.784;10.440;2023-04-03T01:26:54;-0.70;99.90
7155;DHT22;3619;53.784;10.440;2023-04-03T01:29:21;-0.70;99.90
7155;DHT22;3619;53.784;10.440;2023-04-03T01:31:51;-0.80;99.90
7155;DHT22;3619;53.784;10.440;2023-04-03T01:34:18;-0.80;99.90
7155;DHT22;3619;53.784;10.440;2023-04-03T01:36:45;-0.80;99.90
7155;DHT22;3619;53.784;10.440;2023-04-03T01:39:12;-0.80;99.90
7155;DHT22;3619;53.784;10.440;2023-04-03T01:41:39;-0.90;99.90
7155;DHT22;3619;53.784;10.440;2023-04-03T01:44:06;-0.90;99.90
7155;DHT22;3619;53.784;10.440;2023-04-03T01:46:33;-1.00;99.90
7155;DHT22;3619;53.784;10.440;2023-04-03T01:49:01;-1.10;99.90
7155;DHT22;3619;53.784;10.440;2023-04-03T01:51:28;-1.10;99.90
7155;DHT22;3619;53.784;10.440;2023-04-03T01:53:55;-1.10;99.90
7155;DHT22;3619;53.784;10.440;2023-04-03T01:56:22;-1.10;99.90
7155;DHT22;3619;53.784;10.440;2023-04-03T01:58:50;-1.20;99.90
7155;DHT22;3619;53.784;10.440;2023-04-03T02:01:17;-1.20;99.90
7155;DHT22;3619;53.784;10.440;2023-04-03T02:03:43;-1.20;99.90
7155;DHT22;3619;53.784;10.440;2023-04-03T02:06:12;-1.20;99.90
7155;DHT22;3619;53.784;10.440;2023-04-03T02:08:38;-1.20;99.90
7155;DHT22;3619;53.784;10.440;2023-04-03T02:11:05;-1.20;99.90
7155;DHT22;3619;53.784;10.440;2023-04-03T02:13:32;-1.20;99.90
7155;DHT22;3619;53.784;10.440;2023-04-03T02:16:06;-1.30;99.90
7155;DHT22;3619;53.784;10.440;2023-04-03T02:18:34;-1.30;99.90
7155;DHT22;3619;53.784;10.440;2023-04-03T02:21:00;-1.20;99.90
7155;DHT22;3619;53.784;10.440;2023-04-03T02:23:29;-1.30;99.90
7155;DHT22;3619;53.784;10.440;2023-04-03T02:26:03;-1.20;99.90
7155;DHT22;3619;53.784;10.440;2023-04-03T02:28:31;-1.20;99.90
7155;DHT22;3619;53.784;10.440;2023-04-03T02:30:58;-1.30;99.90
7155;DHT22;3619;53.784;10.440;2023-04-03T02:33:25;-1.40;99.90
7155;DHT22;3619;53.784;10.440;2023-04-03T02:35:53;-1.40;99.90
7155;DHT22;3619;53.784;10.440;2023-04-03T02:38:20;-1.40;99.90
7155;DHT22;3619;53.784;10.440;2023-04-03T02:40:48;-1.50;99.90
7155;DHT22;3619;53.784;10.440;2023-04-03T02:43:15;-1.50;99.90
7155;DHT22;3619;53.784;10.440;2023-04-03T02:45:45;-1.40;99.90
7155;DHT22;3619;53.784;10.440;2023-04-03T02:48:12;-1.50;99.90
7155;DHT22;3619;53.784;10.440;2023-04-03T02:50:40;-1.50;99.90
7155;DHT22;3619;53.784;10.440;2023-04-03T02:53:08;-1.50;99.90
7155;DHT22;3619;53.784;10.440;2023-04-03T02:55:35;-1.50;99.90
7155;DHT22;3619;53.784;10.440;2023-04-03T02:58:03;-1.50;99.90
7155;DHT22;3619;53.784;10.440;2023-04-03T03:00:30;-1.40;99.90
7155;DHT22;3619;53.784;10.440;2023-04-03T03:02:58;-1.40;99.90
7155;DHT22;3619;53.784;10.440;2023-04-03T03:05:25;-1.60;99.90
7155;DHT22;3619;53.784;10.440;2023-04-03T03:07:53;-1.70;99.90
7155;DHT22;3619;53.784;10.440;2023-04-03T03:10:20;-1.80;99.90
7155;DHT22;3619;53.784;10.440;2023-04-03T03:12:47;-1.90;99.90
7155;DHT22;3619;53.784;10.440;2023-04-03T03:15:15;-1.90;99.90
7155;DHT22;3619;53.784;10.440;2023-04-03T03:17:42;-1.80;99.90
7155;DHT22;3619;53.784;10.440;2023-04-03T03:20:11;-1.80;99.90
7155;DHT22;3619;53.784;10.440;2023-04-03T03:22:39;-1.90;99.90
7155;DHT22;3619;53.784;10.440;2023-04-03T03:25:06;-2.00;99.90
7155;DHT22;3619;53.784;10.440;2023-04-03T03:27:33;-2.10;99.90
7155;DHT22;3619;53.784;10.440;2023-04-03T03:30:00;-2.10;99.90
7155;DHT22;3619;53.784;10.440;2023-04-03T03:32:28;-2.10;99.90
7155;DHT22;3619;53.784;10.440;2023-04-03T03:34:55;-2.00;99.90
7155;DHT22;3619;53.784;10.440;2023-04-03T03:37:24;-2.00;99.90
7155;DHT22;3619;53.784;10.440;2023-04-03T03:39:50;-2.10;99.90
7155;DHT22;3619;53.784;10.440;2023-04-03T03:42:17;-2.10;99.90
7155;DHT22;3619;53.784;10.440;2023-04-03T03:44:44;-2.20;99.90
7155;DHT22;3619;53.784;10.440;2023-04-03T03:47:11;-2.30;99.90
7155;DHT22;3619;53.784;10.440;2023-04-03T03:49:39;-2.30;99.90
7155;DHT22;3619;53.784;10.440;2023-04-03T03:52:06;-2.30;99.90
7155;DHT22;3619;53.784;10.440;2023-04-03T03:54:36;-2.20;99.90
7155;DHT22;3619;53.784;10.440;2023-04-03T03:57:03;-2.20;99.90
7155;DHT22;3619;53.784;10.440;2023-04-03T03:59:29;-2.30;99.90
7155;DHT22;3619;53.784;10.440;2023-04-03T04:01:56;-2.20;99.90
7155;DHT22;3619;53.784;10.440;2023-04-03T04:04:23;-2.20;99.90
7155;DHT22;3619;53.784;10.440;2023-04-03T04:06:53;-2.30;99.90
7155;DHT22;3619;53.784;10.440;2023-04-03T04:09:21;-2.30;99.90
7155;DHT22;3619;53.784;10.440;2023-04-03T04:11:48;-2.30;99.90
7155;DHT22;3619;53.784;10.440;2023-04-03T04:14:15;-2.30;99.90
7155;DHT22;3619;53.784;10.440;2023-04-03T04:16:41;-2.20;99.90
7155;DHT22;3619;53.784;10.440;2023-04-03T04:19:08;-2.20;99.90
7155;DHT22;3619;53.784;10.440;2023-04-03T04:21:35;-2.30;99.90
7155;DHT22;3619;53.784;10.440;2023-04-03T04:24:04;-2.20;99.90
7155;DHT22;3619;53.784;10.440;2023-04-03T04:26:30;-2.20;99.90
7155;DHT22;3619;53.784;10.440;2023-04-03T04:28:59;-2.20;99.90
7155;DHT22;3619;53.784;10.440;2023-04-03T04:31:26;-2.30;99.90
7155;DHT22;3619;53.784;10.440;2023-04-03T04:33:53;-2.20;99.90
7155;DHT22;3619;53.784;10.440;2023-04-03T04:36:23;-2.20;99.90
7155;DHT22;3619;53.784;10.440;2023-04-03T04:38:50;-2.30;99.90
7155;DHT22;3619;53.784;10.440;2023-04-03T04:41:19;-2.30;99.90
7155;DHT22;3619;53.784;10.440;2023-04-03T04:43:48;-2.40;99.90
7155;DHT22;3619;53.784;10.440;2023-04-03T04:46:15;-2.40;99.90
7155;DHT22;3619;53.784;10.440;2023-04-03T04:48:42;-2.50;99.90
7155;DHT22;3619;53.784;10.440;2023-04-03T04:51:14;-2.40;99.90
7155;DHT22;3619;53.784;10.440;2023-04-03T04:53:41;-2.30;99.90
7155;DHT22;3619;53.784;10.440;2023-04-03T04:56:08;-2.30;99.90
7155;DHT22;3619;53.784;10.440;2023-04-03T04:58:39;-2.40;99.90
7155;DHT22;3619;53.784;10.440;2023-04-03T05:01:07;-2.20;99.90
7155;DHT22;3619;53.784;10.440;2023-04-03T05:03:35;-2.20;99.90
7155;DHT22;3619;53.784;10.440;2023-04-03T05:06:04;-2.30;99.90
7155;DHT22;3619;53.784;10.440;2023-04-03T05:08:31;-2.20;99.90
7155;DHT22;3619;53.784;10.440;2023-04-03T05:10:58;-2.20;99.90
7155;DHT22;3619;53.784;10.440;2023-04-03T05:13:25;-2.20;99.90
7155;DHT22;3619;53.784;10.440;2023-04-03T05:15:53;-2.30;99.90
7155;DHT22;3619;53.784;10.440;2023-04-03T05:18:20;-2.20;99.90
7155;DHT22;3619;53.784;10.440;2023-04-03T05:20:50;-2.10;99.90
7155;DHT22;3619;53.784;10.440;2023-04-03T05:23:17;-2.10;99.90
7155;DHT22;3619;53.784;10.440;2023-04-03T05:25:44;-2.00;99.90
7155;DHT22;3619;53.784;10.440;2023-04-03T05:28:12;-2.10;99.90
7155;DHT22;3619;53.784;10.440;2023-04-03T05:30:39;-2.00;99.90
7155;DHT22;3619;53.784;10.440;2023-04-03T05:33:09;-2.00;99.90
7155;DHT22;3619;53.784;10.440;2023-04-03T05:35:36;-1.90;99.90
7155;DHT22;3619;53.784;10.440;2023-04-03T05:38:06;-1.80;99.90
7155;DHT22;3619;53.784;10.440;2023-04-03T05:40:33;-1.80;99.90
7155;DHT22;3619;53.784;10.440;2023-04-03T05:43:04;-1.70;99.90
7155;DHT22;3619;53.784;10.440;2023-04-03T05:45:31;-1.50;99.90
7155;DHT22;3619;53.784;10.440;2023-04-03T05:47:57;-1.30;99.90
7155;DHT22;3619;53.784;10.440;2023-04-03T05:50:27;-0.90;99.90
7155;DHT22;3619;53.784;10.440;2023-04-03T05:52:57;-0.60;99.90
7155;DHT22;3619;53.784;10.440;2023-04-03T05:55:27;-0.30;99.90
7155;DHT22;3619;53.784;10.440;2023-04-03T05:57:55;0.00;99.90
7155;DHT22;3619;53.784;10.440;2023-04-03T06:00:23;0.30;99.90
7155;DHT22;3619;53.784;10.440;2023-04-03T06:02:50;0.50;99.90
7155;DHT22;3619;53.784;10.440;2023-04-03T06:05:17;0.80;99.90
7155;DHT22;3619;53.784;10.440;2023-04-03T06:07:45;1.00;99.90
7155;DHT22;3619;53.784;10.440;2023-04-03T06:10:13;1.30;99.90
7155;DHT22;3619;53.784;10.440;2023-04-03T06:12:39;1.50;99.90
7155;DHT22;3619;53.784;10.440;2023-04-03T06:15:07;1.50;99.90
7155;DHT22;3619;53.784;10.440;2023-04-03T06:17:35;1.70;99.90
7155;DHT22;3619;53.784;10.440;2023-04-03T06:20:09;2.00;99.90
7155;DHT22;3619;53.784;10.440;2023-04-03T06:22:36;2.10;99.90
7155;DHT22;3619;53.784;10.440;2023-04-03T06:25:07;2.30;99.90
7155;DHT22;3619;53.784;10.440;2023-04-03T06:27:34;2.60;99.90
7155;DHT22;3619;53.784;10.440;2023-04-03T06:30:01;2.70;99.90
7155;DHT22;3619;53.784;10.440;2023-04-03T06:32:28;2.90;99.90
7155;DHT22;3619;53.784;10.440;2023-04-03T06:34:55;3.00;99.90
7155;DHT22;3619;53.784;10.440;2023-04-03T06:37:25;2.90;99.90
7155;DHT22;3619;53.784;10.440;2023-04-03T06:39:54;2.90;99.90
7155;DHT22;3619;53.784;10.440;2023-04-03T06:42:23;2.90;99.90
7155;DHT22;3619;53.784;10.440;2023-04-03T06:44:50;2.80;99.90
7155;DHT22;3619;53.784;10.440;2023-04-03T06:47:19;3.10;99.90
7155;DHT22;3619;53.784;10.440;2023-04-03T06:49:46;3.40;99.90
7155;DHT22;3619;53.784;10.440;2023-04-03T06:52:13;3.50;99.90
7155;DHT22;3619;53.784;10.440;2023-04-03T06:54:41;3.60;99.90
7155;DHT22;3619;53.784;10.440;2023-04-03T06:57:08;3.70;99.90
7155;DHT22;3619;53.784;10.440;2023-04-03T06:59:36;3.90;99.90
7155;DHT22;3619;53.784;10.440;2023-04-03T07:02:06;4.10;99.90
7155;DHT22;3619;53.784;10.440;2023-04-03T07:04:32;4.20;99.90
7155;DHT22;3619;53.784;10.440;2023-04-03T07:07:01;4.50;99.90
7155;DHT22;3619;53.784;10.440;2023-04-03T07:09:30;4.70;99.90
7155;DHT22;3619;53.784;10.440;2023-04-03T07:11:57;4.70;99.90
7155;DHT22;3619;53.784;10.440;2023-04-03T07:14:23;4.90;99.90
7155;DHT22;3619;53.784;10.440;2023-04-03T07:16:51;5.00;99.90
7155;DHT22;3619;53.784;10.440;2023-04-03T07:19:20;5.10;99.90
7155;DHT22;3619;53.784;10.440;2023-04-03T07:21:47;4.90;99.90
7155;DHT22;3619;53.784;10.440;2023-04-03T07:24:17;5.00;99.90
7155;DHT22;3619;53.784;10.440;2023-04-03T07:26:44;5.20;99.90
7155;DHT22;3619;53.784;10.440;2023-04-03T07:29:14;5.40;99.90
7155;DHT22;3619;53.784;10.440;2023-04-03T07:31:41;5.50;99.90
7155;DHT22;3619;53.784;10.440;2023-04-03T07:34:09;5.60;99.90
7155;DHT22;3619;53.784;10.440;2023-04-03T07:36:36;5.80;99.90
7155;DHT22;3619;53.784;10.440;2023-04-03T07:39:03;6.20;99.90
7155;DHT22;3619;53.784;10.440;2023-04-03T07:41:33;6.30;99.90
7155;DHT22;3619;53.784;10.440;2023-04-03T07:44:00;6.20;99.90
7155;DHT22;3619;53.784;10.440;2023-04-03T07:46:27;5.80;99.90
7155;DHT22;3619;53.784;10.440;2023-04-03T07:48:55;5.80;99.90
7155;DHT22;3619;53.784;10.440;2023-04-03T07:51:24;5.90;99.90
7155;DHT22;3619;53.784;10.440;2023-04-03T07:53:59;5.70;99.90
7155;DHT22;3619;53.784;10.440;2023-04-03T07:59:52;5.90;99.90
7155;DHT22;3619;53.784;10.440;2023-04-03T08:02:19;6.20;99.90
7155;DHT22;3619;53.784;10.440;2023-04-03T08:04:49;6.30;99.90
7155;DHT22;3619;53.784;10.440;2023-04-03T08:07:22;6.10;99.90
7155;DHT22;3619;53.784;10.440;2023-04-03T08:09:53;6.40;99.90
7155;DHT22;3619;53.784;10.440;2023-04-03T08:12:27;6.40;99.90
7155;DHT22;3619;53.784;10.440;2023-04-03T08:14:57;6.20;99.90
7155;DHT22;3619;53.784;10.440;2023-04-03T08:17:31;6.30;99.90
7155;DHT22;3619;53.784;10.440;2023-04-03T08:20:00;6.40;99.90
7155;DHT22;3619;53.784;10.440;2023-04-03T08:22:33;6.70;99.90
7155;DHT22;3619;53.784;10.440;2023-04-03T08:25:01;6.80;99.90
7155;DHT22;3619;53.784;10.440;2023-04-03T08:27:28;7.00;99.90
7155;DHT22;3619;53.784;10.440;2023-04-03T08:29:58;7.00;99.90
7155;DHT22;3619;53.784;10.440;2023-04-03T08:32:25;7.30;99.90
7155;DHT22;3619;53.784;10.440;2023-04-03T08:34:52;7.10;99.90
7155;DHT22;3619;53.784;10.440;2023-04-03T08:37:20;7.10;99.90
7155;DHT22;3619;53.784;10.440;2023-04-03T08:39:50;7.30;99.90
7155;DHT22;3619;53.784;10.440;2023-04-03T08:42:35;7.30;99.90
7155;DHT22;3619;53.784;10.440;2023-04-03T08:45:10;7.00;99.90
7155;DHT22;3619;53.784;10.440;2023-04-03T08:47:46;7.10;99.90
7155;DHT22;3619;53.784;10.440;2023-04-03T08:50:20;7.30;99.90
7155;DHT22;3619;53.784;10.440;2023-04-03T08:52:56;7.30;99.90
7155;DHT22;3619;53.784;10.440;2023-04-03T08:55:27;7.40;99.90
7155;DHT22;3619;53.784;10.440;2023-04-03T08:58:00;7.20;99.90
7155;DHT22;3619;53.784;10.440;2023-04-03T09:00:32;7.40;99.90
7155;DHT22;3619;53.784;10.440;2023-04-03T09:03:01;7.40;99.90
7155;DHT22;3619;53.784;10.440;2023-04-03T09:05:39;7.10;99.90
7155;DHT22;3619;53.784;10.440;2023-04-03T09:08:22;6.90;99.90
7155;DHT22;3619;53.784;10.440;2023-04-03T09:10:59;6.40;99.90
7155;DHT22;3619;53.784;10.440;2023-04-03T09:13:33;6.20;99.90
7155;DHT22;3619;53.784;10.440;2023-04-03T09:16:14;6.30;99.90
7155;DHT22;3619;53.784;10.440;2023-04-03T09:18:48;6.50;99.90
7155;DHT22;3619;53.784;10.440;2023-04-03T09:21:27;6.60;99.90
7155;DHT22;3619;53.784;10.440;2023-04-03T09:24:01;7.00;99.90
7155;DHT22;3619;53.784;10.440;2023-04-03T09:26:36;7.40;99.90
7155;DHT22;3619;53.784;10.440;2023-04-03T09:29:06;7.70;99.90
7155;DHT22;3619;53.784;10.440;2023-04-03T09:31:37;7.70;99.90
7155;DHT22;3619;53.784;10.440;2023-04-03T09:34:10;7.50;99.90
7155;DHT22;3619;53.784;10.440;2023-04-03T09:36:41;7.20;99.90
7155;DHT22;3619;53.784;10.440;2023-04-03T09:39:12;7.50;99.90
7155;DHT22;3619;53.784;10.440;2023-04-03T09:42:01;7.60;99.90
7155;DHT22;3619;53.784;10.440;2023-04-03T09:44:30;7.10;99.90
7155;DHT22;3619;53.784;10.440;2023-04-03T09:46:58;6.80;99.90
7155;DHT22;3619;53.784;10.440;2023-04-03T09:49:26;6.90;99.90
7155;DHT22;3619;53.784;10.440;2023-04-03T09:51:53;7.00;99.90
7155;DHT22;3619;53.784;10.440;2023-04-03T09:54:29;6.70;99.90
7155;DHT22;3619;53.784;10.440;2023-04-03T09:57:01;6.80;99.90
7155;DHT22;3619;53.784;10.440;2023-04-03T09:59:30;7.40;99.90
7155;DHT22;3619;53.784;10.440;2023-04-03T10:01:59;7.80;99.90
7155;DHT22;3619;53.784;10.440;2023-04-03T10:04:27;7.90;99.90
7155;DHT22;3619;53.784;10.440;2023-04-03T10:07:30;8.20;99.90
7155;DHT22;3619;53.784;10.440;2023-04-03T10:09:59;8.50;99.90
7155;DHT22;3619;53.784;10.440;2023-04-03T10:12:28;8.40;99.90
7155;DHT22;3619;53.784;10.440;2023-04-03T10:14:57;8.30;99.90
7155;DHT22;3619;53.784;10.440;2023-04-03T10:17:36;8.50;99.90
7155;DHT22;3619;53.784;10.440;2023-04-03T10:20:15;8.60;99.90
7155;DHT22;3619;53.784;10.440;2023-04-03T10:22:56;8.40;99.90
7155;DHT22;3619;53.784;10.440;2023-04-03T10:25:32;8.70;99.90
7155;DHT22;3619;53.784;10.440;2023-04-03T10:28:06;8.70;99.90
7155;DHT22;3619;53.784;10.440;2023-04-03T10:30:41;8.30;99.90
7155;DHT22;3619;53.784;10.440;2023-04-03T10:36:12;7.10;99.90
7155;DHT22;3619;53.784;10.440;2023-04-03T10:38:56;6.80;99.90
7155;DHT22;3619;53.784;10.440;2023-04-03T10:41:34;6.40;99.90
7155;DHT22;3619;53.784;10.440;2023-04-03T10:44:14;6.00;99.90
7155;DHT22;3619;53.784;10.440;2023-04-03T10:46:45;5.90;99.90
7155;DHT22;3619;53.784;10.440;2023-04-03T10:49:31;6.00;99.90
7155;DHT22;3619;53.784;10.440;2023-04-03T10:52:02;6.30;99.90
7155;DHT22;3619;53.784;10.440;2023-04-03T10:54:35;6.50;99.90
7155;DHT22;3619;53.784;10.440;2023-04-03T10:57:05;6.40;99.90
7155;DHT22;3619;53.784;10.440;2023-04-03T10:59:37;6.20;99.90
7155;DHT22;3619;53.784;10.440;2023-04-03T11:02:07;6.10;99.90
7155;DHT22;3619;53.784;10.440;2023-04-03T11:04:42;6.20;99.90
7155;DHT22;3619;53.784;10.440;2023-04-03T11:07:15;6.00;99.90
7155;DHT22;3619;53.784;10.440;2023-04-03T11:09:46;6.10;99.90
7155;DHT22;3619;53.784;10.440;2023-04-03T11:12:17;6.20;99.90
7155;DHT22;3619;53.784;10.440;2023-04-03T11:14:48;6.20;99.90
7155;DHT22;3619;53.784;10.440;2023-04-03T11:17:26;6.20;99.90
7155;DHT22;3619;53.784;10.440;2023-04-03T11:20:00;6.40;99.90
7155;DHT22;3619;53.784;10.440;2023-04-03T11:22:32;6.80;99.90
7155;DHT22;3619;53.784;10.440;2023-04-03T11:25:04;7.10;99.90
7155;DHT22;3619;53.784;10.440;2023-04-03T11:27:37;7.00;99.90
7155;DHT22;3619;53.784;10.440;2023-04-03T11:30:20;6.40;99.90
7155;DHT22;3619;53.784;10.440;2023-04-03T11:36:04;6.80;99.90
7155;DHT22;3619;53.784;10.440;2023-04-03T11:38:41;6.80;99.90
7155;DHT22;3619;53.784;10.440;2023-04-03T11:41:33;6.60;99.90
7155;DHT22;3619;53.784;10.440;2023-04-03T11:44:33;6.40;99.90
7155;DHT22;3619;53.784;10.440;2023-04-03T11:47:05;6.10;99.90
7155;DHT22;3619;53.784;10.440;2023-04-03T11:49:55;6.00;99.90
7155;DHT22;3619;53.784;10.440;2023-04-03T11:52:57;6.40;99.90
7155;DHT22;3619;53.784;10.440;2023-04-03T11:55:52;6.90;99.90
7155;DHT22;3619;53.784;10.440;2023-04-03T11:58:20;6.90;99.90
7155;DHT22;3619;53.784;10.440;2023-04-03T12:10:02;6.30;99.90
7155;DHT22;3619;53.784;10.440;2023-04-03T12:12:58;6.50;99.90
7155;DHT22;3619;53.784;10.440;2023-04-03T12:15:52;6.60;99.90
7155;DHT22;3619;53.784;10.440;2023-04-03T12:18:41;7.00;99.90
7155;DHT22;3619;53.784;10.440;2023-04-03T12:21:09;7.30;99.90
7155;DHT22;3619;53.784;10.440;2023-04-03T12:26:24;7.30;99.90
7155;DHT22;3619;53.784;10.440;2023-04-03T12:28:55;7.50;99.90
7155;DHT22;3619;53.784;10.440;2023-04-03T12:31:26;7.70;99.90
7155;DHT22;3619;53.784;10.440;2023-04-03T12:34:35;7.60;99.90
7155;DHT22;3619;53.784;10.440;2023-04-03T12:37:15;7.30;99.90
7155;DHT22;3619;53.784;10.440;2023-04-03T12:39:54;7.20;99.90
7155;DHT22;3619;53.784;10.440;2023-04-03T12:42:39;7.20;99.90
7155;DHT22;3619;53.784;10.440;2023-04-03T12:45:16;7.30;99.90
7155;DHT22;3619;53.784;10.440;2023-04-03T12:47:44;7.70;99.90
7155;DHT22;3619;53.784;10.440;2023-04-03T12:50:21;7.60;99.90
7155;DHT22;3619;53.784;10.440;2023-04-03T12:53:01;7.70;99.90
7155;DHT22;3619;53.784;10.440;2023-04-03T12:55:29;8.00;99.90
7155;DHT22;3619;53.784;10.440;2023-04-03T12:58:17;8.00;99.90
7155;DHT22;3619;53.784;10.440;2023-04-03T13:00:58;8.10;99.90
7155;DHT22;3619;53.784;10.440;2023-04-03T13:03:26;7.90;99.90
7155;DHT22;3619;53.784;10.440;2023-04-03T13:05:55;7.90;99.90
7155;DHT22;3619;53.784;10.440;2023-04-03T13:08:23;7.80;99.90
7155;DHT22;3619;53.784;10.440;2023-04-03T13:10:54;7.90;99.90
7155;DHT22;3619;53.784;10.440;2023-04-03T13:13:23;8.00;99.90
7155;DHT22;3619;53.784;10.440;2023-04-03T13:15:53;8.00;99.90
7155;DHT22;3619;53.784;10.440;2023-04-03T13:18:29;8.10;99.90
7155;DHT22;3619;53.784;10.440;2023-04-03T13:21:01;8.20;99.90
7155;DHT22;3619;53.784;10.440;2023-04-03T13:23:42;8.20;99.90
7155;DHT22;3619;53.784;10.440;2023-04-03T13:26:18;8.00;99.90
7155;DHT22;3619;53.784;10.440;2023-04-03T13:29:21;8.10;99.90
7155;DHT22;3619;53.784;10.440;2023-04-03T13:31:53;8.00;99.90
7155;DHT22;3619;53.784;10.440;2023-04-03T13:34:23;7.90;99.90
7155;DHT22;3619;53.784;10.440;2023-04-03T13:37:01;8.20;99.90
7155;DHT22;3619;53.784;10.440;2023-04-03T13:39:31;8.30;99.90
7155;DHT22;3619;53.784;10.440;2023-04-03T13:42:00;8.20;99.90
7155;DHT22;3619;53.784;10.440;2023-04-03T13:44:37;8.10;99.90
7155;DHT22;3619;53.784;10.440;2023-04-03T13:47:17;8.10;99.90
7155;DHT22;3619;53.784;10.440;2023-04-03T13:50:17;8.10;99.90
7155;DHT22;3619;53.784;10.440;2023-04-03T13:52:54;7.90;99.90
7155;DHT22;3619;53.784;10.440;2023-04-03T13:55:59;8.20;99.90
7155;DHT22;3619;53.784;10.440;2023-04-03T14:02:29;8.20;99.90
7155;DHT22;3619;53.784;10.440;2023-04-03T14:05:52;7.90;99.90
7155;DHT22;3619;53.784;10.440;2023-04-03T14:12:12;6.80;99.90
7155;DHT22;3619;53.784;10.440;2023-04-03T14:18:11;7.40;99.90
7155;DHT22;3619;53.784;10.440;2023-04-03T14:20:51;7.70;99.90
7155;DHT22;3619;53.784;10.440;2023-04-03T14:23:18;7.40;99.90
7155;DHT22;3619;53.784;10.440;2023-04-03T14:25:45;7.20;99.90
7155;DHT22;3619;53.784;10.440;2023-04-03T14:28:16;7.00;99.90
7155;DHT22;3619;53.784;10.440;2023-04-03T14:31:11;7.20;99.90
7155;DHT22;3619;53.784;10.440;2023-04-03T14:38:12;6.70;99.90
7155;DHT22;3619;53.784;10.440;2023-04-03T14:41:09;7.00;99.90
7155;DHT22;3619;53.784;10.440;2023-04-03T14:43:47;7.60;99.90
7155;DHT22;3619;53.784;10.440;2023-04-03T14:49:47;7.50;99.90
7155;DHT22;3619;53.784;10.440;2023-04-03T14:52:21;6.90;99.90
7155;DHT22;3619;53.784;10.440;2023-04-03T14:54:55;6.50;99.90
7155;DHT22;3619;53.784;10.440;2023-04-03T14:57:23;6.20;99.90
7155;DHT22;3619;53.784;10.440;2023-04-03T14:59:51;6.20;99.90
7155;DHT22;3619;53.784;10.440;2023-04-03T15:02:26;6.60;99.90
7155;DHT22;3619;53.784;10.440;2023-04-03T15:04:54;7.00;99.90
7155;DHT22;3619;53.784;10.440;2023-04-03T15:07:21;6.90;99.90
7155;DHT22;3619;53.784;10.440;2023-04-03T15:09:51;6.70;99.90
7155;DHT22;3619;53.784;10.440;2023-04-03T15:12:18;6.40;99.90
7155;DHT22;3619;53.784;10.440;2023-04-03T15:14:45;6.50;99.90
7155;DHT22;3619;53.784;10.440;2023-04-03T15:17:15;6.60;99.90
7155;DHT22;3619;53.784;10.440;2023-04-03T15:19:43;6.80;99.90
7155;DHT22;3619;53.784;10.440;2023-04-03T15:22:15;6.90;99.90
7155;DHT22;3619;53.784;10.440;2023-04-03T15:24:43;6.80;99.90
7155;DHT22;3619;53.784;10.440;2023-04-03T15:27:14;6.70;99.90
7155;DHT22;3619;53.784;10.440;2023-04-03T15:29:43;7.00;99.90
7155;DHT22;3619;53.784;10.440;2023-04-03T15:32:12;6.90;99.90
7155;DHT22;3619;53.784;10.440;2023-04-03T15:34:39;6.80;99.90
7155;DHT22;3619;53.784;10.440;2023-04-03T15:37:06;6.70;99.90
7155;DHT22;3619;53.784;10.440;2023-04-03T15:39:33;6.70;99.90
7155;DHT22;3619;53.784;10.440;2023-04-03T15:41:59;6.60;99.90
7155;DHT22;3619;53.784;10.440;2023-04-03T15:44:33;6.40;99.90
7155;DHT22;3619;53.784;10.440;2023-04-03T15:47:00;6.20;99.90
7155;DHT22;3619;53.784;10.440;2023-04-03T15:49:27;6.20;99.90
7155;DHT22;3619;53.784;10.440;2023-04-03T15:51:54;6.50;99.90
7155;DHT22;3619;53.784;10.440;2023-04-03T15:54:21;6.60;99.90
7155;DHT22;3619;53.784;10.440;2023-04-03T15:56:49;6.60;99.90
7155;DHT22;3619;53.784;10.440;2023-04-03T15:59:16;6.50;99.90
7155;DHT22;3619;53.784;10.440;2023-04-03T16:01:44;6.30;99.90
7155;DHT22;3619;53.784;10.440;2023-04-03T16:04:11;5.90;99.90
7155;DHT22;3619;53.784;10.440;2023-04-03T16:06:38;5.80;99.90
7155;DHT22;3619;53.784;10.440;2023-04-03T16:09:07;5.80;99.90
7155;DHT22;3619;53.784;10.440;2023-04-03T16:11:34;6.00;99.90
7155;DHT22;3619;53.784;10.440;2023-04-03T16:14:04;6.20;99.90
7155;DHT22;3619;53.784;10.440;2023-04-03T16:16:32;6.20;99.90
7155;DHT22;3619;53.784;10.440;2023-04-03T16:19:00;6.10;99.90
7155;DHT22;3619;53.784;10.440;2023-04-03T16:21:27;6.10;99.90
7155;DHT22;3619;53.784;10.440;2023-04-03T16:23:56;6.20;99.90
7155;DHT22;3619;53.784;10.440;2023-04-03T16:26:24;6.40;99.90
7155;DHT22;3619;53.784;10.440;2023-04-03T16:28:51;6.30;99.90
7155;DHT22;3619;53.784;10.440;2023-04-03T16:31:20;6.20;99.90
7155;DHT22;3619;53.784;10.440;2023-04-03T16:33:47;6.30;99.90
7155;DHT22;3619;53.784;10.440;2023-04-03T16:36:15;6.30;99.90
7155;DHT22;3619;53.784;10.440;2023-04-03T16:38:44;6.30;99.90
7155;DHT22;3619;53.784;10.440;2023-04-03T16:41:11;6.10;99.90
7155;DHT22;3619;53.784;10.440;2023-04-03T16:43:38;6.20;99.90
7155;DHT22;3619;53.784;10.440;2023-04-03T16:46:08;6.20;99.90
7155;DHT22;3619;53.784;10.440;2023-04-03T16:48:37;6.20;99.90
7155;DHT22;3619;53.784;10.440;2023-04-03T16:51:04;6.10;99.90
7155;DHT22;3619;53.784;10.440;2023-04-03T16:53:32;6.10;99.90
7155;DHT22;3619;53.784;10.440;2023-04-03T16:55:59;6.10;99.90
7155;DHT22;3619;53.784;10.440;2023-04-03T16:58:26;6.10;99.90
7155;DHT22;3619;53.784;10.440;2023-04-03T17:00:56;6.00;99.90
7155;DHT22;3619;53.784;10.440;2023-04-03T17:03:26;5.90;99.90